Time;durP1;ratioP1;P1;durP2;ratioP2;P2;SDS_P1;SDS_P2;PMS_P1;PMS_P2;Temp;Humidity;BMP_temperature;BMP_pressure;BME280_temperature;BME280_humidity;BME280_pressure;Samples;Min_cycle;Max_cycle;Signal;HPM_P1;HPM_P2
2021/10/15 00:00:39;;;;;;;17.85;7.60;;;;;;;10.47;74.57;100251.03;5018892;28;20045;-62
2021/10/15 00:03:23;;;;;;;9.88;6.72;;;;;;;10.46;74.41;100246.69;5034294;28;20413;-62
2021/10/15 00:06:10;;;;;;;16.95;6.68;;;;;;;10.45;74.75;100242.34;5034071;28;20048;-62
2021/10/15 00:08:54;;;;;;;16.90;7.65;;;;;;;10.44;74.71;100243.19;5018785;28;20068;-61
2021/10/15 00:11:43;;;;;;;12.77;6.28;;;;;;;10.46;74.87;100238.06;5019458;28;20096;-62
2021/10/15 00:14:30;;;;;;;13.45;6.45;;;;;;;10.46;74.64;100233.75;5033387;28;20467;-62
2021/10/15 00:17:17;;;;;;;13.25;6.00;;;;;;;10.47;74.68;100232.03;5033566;28;20404;-62
2021/10/15 00:20:05;;;;;;;25.60;6.63;;;;;;;10.44;74.44;100231.97;5019214;28;20048;-62
2021/10/15 00:22:52;;;;;;;11.77;5.65;;;;;;;10.44;74.64;100231.97;5018557;28;20090;-62
2021/10/15 00:25:36;;;;;;;7.82;4.88;;;;;;;10.44;74.43;100232.84;5018902;28;20099;-62
2021/10/15 00:28:20;;;;;;;12.02;5.60;;;;;;;10.44;74.75;100230.25;5033278;28;20072;-62
2021/10/15 00:31:12;;;;;;;11.73;4.95;;;;;;;10.43;74.38;100238.84;5033426;28;20152;-62
2021/10/15 00:34:02;;;;;;;15.80;6.18;;;;;;;10.42;74.31;100229.38;5018725;28;20162;-62
2021/10/15 00:36:46;;;;;;;13.23;5.40;;;;;;;10.42;74.53;100224.19;5018767;28;20100;-62
2021/10/15 00:39:33;;;;;;;7.90;5.03;;;;;;;10.44;74.57;100219.88;5018747;28;20042;-62
2021/10/15 00:42:17;;;;;;;7.30;4.72;;;;;;;10.44;74.18;100224.19;5018365;28;20102;-62
2021/10/15 00:45:10;;;;;;;8.65;5.05;;;;;;;10.44;74.41;100208.66;5033142;28;20053;-62
2021/10/15 00:47:55;;;;;;;11.10;5.32;;;;;;;10.44;74.33;100211.25;5018933;28;20507;-61
2021/10/15 00:50:43;;;;;;;7.88;5.85;;;;;;;10.42;74.17;100202.56;5018393;28;20040;-62
2021/10/15 00:53:32;;;;;;;7.85;5.20;;;;;;;10.42;74.46;100205.16;5033394;28;20057;-62
2021/10/15 00:56:16;;;;;;;9.50;5.38;;;;;;;10.42;74.36;100199.97;5033239;28;20164;-62
2021/10/15 00:59:01;;;;;;;9.35;4.95;;;;;;;10.41;74.37;100201.72;5033696;28;20616;-62
2021/10/15 01:01:48;;;;;;;11.43;5.45;;;;;;;10.39;74.22;100190.44;5018834;28;20060;-62
2021/10/15 01:04:38;;;;;;;8.43;5.10;;;;;;;10.39;74.23;100190.44;5033250;28;20044;-61
2021/10/15 01:07:24;;;;;;;9.90;5.10;;;;;;;10.39;74.01;100187.84;5022154;28;20099;-62
2021/10/15 01:10:11;;;;;;;11.95;5.35;;;;;;;10.38;74.28;100188.69;5022677;28;20045;-62
2021/10/15 01:12:56;;;;;;;9.70;5.25;;;;;;;10.37;74.42;100184.31;5021890;28;20420;-63
2021/10/15 01:15:42;;;;;;;6.18;4.63;;;;;;;10.36;74.46;100178.25;5036791;28;20099;-63
2021/10/15 01:18:27;;;;;;;8.50;5.30;;;;;;;10.37;74.72;100179.13;5022036;28;20056;-63
2021/10/15 01:21:16;;;;;;;13.40;4.50;;;;;;;10.36;74.26;100174.78;5037045;28;20088;-64
2021/10/15 01:24:03;;;;;;;12.73;6.57;;;;;;;10.36;74.24;100179.97;5021926;28;20522;-62
2021/10/15 01:26:47;;;;;;;10.43;6.00;;;;;;;10.37;74.49;100176.53;5022212;28;20088;-62
2021/10/15 01:29:31;;;;;;;8.40;4.80;;;;;;;10.36;74.29;100170.47;5037086;28;20048;-63
2021/10/15 01:32:22;;;;;;;;;;;;;;;10.35;74.24;100166.13;5036997;28;20430;-63
2021/10/15 01:35:09;;;;;;;10.77;5.82;;;;;;;10.33;74.31;100164.38;5021815;28;19924;-63
2021/10/15 01:37:53;;;;;;;8.43;4.93;;;;;;;10.34;74.32;100154.06;5036536;28;20156;-63
2021/10/15 01:40:37;;;;;;;9.02;5.05;;;;;;;10.33;73.88;100160.06;5036557;28;20128;-63
2021/10/15 01:43:24;;;;;;;8.15;4.97;;;;;;;10.33;74.02;100149.72;5021492;28;20056;-63
2021/10/15 01:46:12;;;;;;;11.88;5.38;;;;;;;10.33;74.26;100144.53;5021641;28;20051;-63
2021/10/15 01:48:58;;;;;;;6.75;4.90;;;;;;;10.32;74.11;100147.97;5036827;28;20048;-63
2021/10/15 01:51:50;;;;;;;9.43;5.20;;;;;;;10.31;73.95;100137.56;5036001;28;20486;-63
2021/10/15 01:54:37;;;;;;;7.75;5.50;;;;;;;10.31;74.37;100135.84;5021616;28;20063;-63
2021/10/15 01:57:26;;;;;;;8.98;5.75;;;;;;;10.31;74.31;100135.84;5036616;28;20515;-63
2021/10/15 02:00:12;;;;;;;12.18;6.30;;;;;;;10.30;74.35;100134.09;5036085;28;20420;-63
2021/10/15 02:02:57;;;;;;;12.45;5.95;;;;;;;10.29;74.71;100127.19;5021285;28;20061;-63
2021/10/15 02:05:43;;;;;;;9.35;5.03;;;;;;;10.29;73.98;100132.34;5035860;28;20076;-63
2021/10/15 02:08:27;;;;;;;9.77;5.75;;;;;;;10.28;74.15;100122.84;5036200;28;20091;-63
2021/10/15 02:11:16;;;;;;;8.98;5.53;;;;;;;10.28;74.14;100120.25;5036147;28;20072;-63
2021/10/15 02:14:00;;;;;;;8.55;5.53;;;;;;;10.26;74.33;100121.94;5020797;28;20057;-63
2021/10/15 02:16:44;;;;;;;11.00;5.88;;;;;;;10.27;74.25;100120.22;5020787;28;20051;-63
2021/10/15 02:19:31;;;;;;;11.45;6.90;;;;;;;10.26;74.06;100108.97;5035951;28;20048;-63
2021/10/15 02:22:18;;;;;;;11.95;5.35;;;;;;;10.27;74.10;100110.72;5035795;28;20075;-63
2021/10/15 02:25:02;;;;;;;10.18;4.68;;;;;;;10.26;73.97;100108.97;5020915;28;20113;-63
2021/10/15 02:27:47;;;;;;;6.38;5.22;;;;;;;10.24;74.21;100113.25;5021079;28;20103;-63
2021/10/15 02:30:31;;;;;;;;;;;;;;;10.24;74.10;100102.03;5036193;28;20072;-63
2021/10/15 02:33:16;;;;;;;8.00;6.28;;;;;;;10.24;73.92;100100.31;5035837;28;20390;-63
2021/10/15 02:36:05;;;;;;;10.23;5.78;;;;;;;10.24;73.96;100095.13;5021059;28;20064;-64
2021/10/15 02:38:55;;;;;;;7.35;5.03;;;;;;;10.24;74.12;100091.69;5036342;28;20117;-63
2021/10/15 02:41:45;;;;;;;11.75;4.88;;;;;;;10.25;73.74;100089.09;5020417;28;20095;-63
2021/10/15 02:44:34;;;;;;;9.00;4.78;;;;;;;10.24;73.98;100087.34;5035466;28;20082;-63
2021/10/15 02:47:24;;;;;;;10.95;4.90;;;;;;;10.23;73.86;100083.00;5020716;28;20555;-63
2021/10/15 02:50:10;;;;;;;7.57;5.22;;;;;;;10.25;73.98;100083.06;5020202;28;20102;-64
2021/10/15 02:52:54;;;;;;;8.77;4.90;;;;;;;10.24;73.78;100086.50;5020168;28;20588;-63
2021/10/15 02:55:38;;;;;;;11.43;5.18;;;;;;;10.25;73.75;100080.47;5035403;28;20080;-63
2021/10/15 02:58:22;;;;;;;11.52;5.03;;;;;;;10.25;73.81;100070.97;5035509;28;20101;-63
2021/10/15 03:01:12;;;;;;;7.45;4.80;;;;;;;10.24;73.89;100070.97;5020407;28;20142;-63
2021/10/15 03:03:59;;;;;;;8.23;5.85;;;;;;;10.23;74.08;100062.28;5035140;28;20072;-64
2021/10/15 03:06:49;;;;;;;11.52;5.65;;;;;;;10.24;73.86;100060.59;5019896;28;20559;-64
2021/10/15 03:09:35;;;;;;;8.52;5.38;;;;;;;10.24;74.12;100065.78;5035307;28;20068;-64
2021/10/15 03:12:22;;;;;;;10.93;5.03;;;;;;;10.23;74.11;100064.03;5019455;28;20047;-64
2021/10/15 03:15:11;;;;;;;8.50;5.38;;;;;;;10.24;73.85;100065.78;5019962;28;20044;-63
2021/10/15 03:17:58;;;;;;;8.48;5.80;;;;;;;10.21;74.14;100067.47;5034577;28;20523;-64
2021/10/15 03:20:45;;;;;;;6.43;4.65;;;;;;;10.23;73.94;100064.88;5035519;28;20072;-63
2021/10/15 03:23:29;;;;;;;8.43;5.55;;;;;;;10.25;73.79;100060.59;5034291;28;20056;-63
2021/10/15 03:26:18;;;;;;;9.93;5.00;;;;;;;10.26;73.76;100061.50;5019767;28;20129;-62
2021/10/15 03:29:09;;;;;;;8.50;5.18;;;;;;;10.27;73.79;100056.34;5034547;28;20048;-62
2021/10/15 03:31:53;;;;;;;12.20;4.68;;;;;;;10.25;73.93;100055.44;5019894;28;20580;-63
2021/10/15 03:34:42;;;;;;;7.80;5.15;;;;;;;10.25;74.02;100055.44;5019375;28;20558;-62
2021/10/15 03:37:32;;;;;;;12.40;5.32;;;;;;;10.26;73.61;100048.53;5034238;28;20052;-62
2021/10/15 03:40:19;;;;;;;12.40;5.90;;;;;;;10.26;73.98;100044.22;5019717;28;20075;-62
2021/10/15 03:43:03;;;;;;;8.68;5.43;;;;;;;10.26;74.16;100033.88;5019395;28;20187;-62
2021/10/15 03:45:47;;;;;;;15.68;5.32;;;;;;;10.28;73.97;100036.47;5019370;28;20129;-62
2021/10/15 03:48:34;;;;;;;8.73;5.18;;;;;;;10.27;73.86;100039.94;5034090;28;20071;-62
2021/10/15 03:53:36;;;;;;;7.47;5.05;;;;;;;10.27;74.08;100039.94;5132075;27;20546;-63
2021/10/15 03:56:26;;;;;;;6.85;4.97;;;;;;;10.29;74.20;100039.09;5116310;28;20515;-64
2021/10/15 03:59:14;;;;;;;8.98;5.68;;;;;;;10.29;74.27;100036.50;5131884;28;20165;-63
2021/10/15 04:02:01;;;;;;;9.88;5.28;;;;;;;10.31;73.86;100046.88;5131536;28;20053;-63
2021/10/15 04:04:50;;;;;;;10.73;5.35;;;;;;;10.29;73.98;100033.91;5131398;28;20475;-63
2021/10/15 04:07:35;;;;;;;10.75;5.47;;;;;;;10.31;74.02;100041.72;5116501;28;20049;-64
2021/10/15 04:10:19;;;;;;;8.63;5.07;;;;;;;10.32;74.03;100049.53;5116058;28;20116;-63
2021/10/15 04:13:08;;;;;;;12.55;5.55;;;;;;;10.30;74.08;100040.84;5131394;28;20398;-63
2021/10/15 04:16:01;;;;;;;15.65;5.30;;;;;;;10.30;73.80;100035.66;5116568;28;20078;-63
2021/10/15 04:18:47;;;;;;;7.93;4.97;;;;;;;10.28;73.97;100032.19;5116146;28;20042;-63
2021/10/15 04:21:34;;;;;;;9.95;5.50;;;;;;;10.31;73.78;100031.34;5131712;28;20046;-63
2021/10/15 04:24:21;;;;;;;7.00;4.57;;;;;;;10.31;73.67;100024.47;5115633;28;20406;-63
2021/10/15 04:27:13;;;;;;;12.50;5.45;;;;;;;10.31;74.08;100026.16;5131001;28;20142;-63
2021/10/15 04:30:03;;;;;;;8.13;5.22;;;;;;;10.31;73.99;100015.81;5115554;28;20093;-63
2021/10/15 04:32:47;;;;;;;11.52;5.78;;;;;;;10.32;74.01;100015.84;5115797;28;20046;-63
2021/10/15 04:35:31;;;;;;;10.55;6.30;;;;;;;10.31;73.71;100011.50;5131110;28;20054;-63
2021/10/15 04:38:21;;;;;;;10.40;5.30;;;;;;;10.30;73.85;100009.75;5115480;28;20050;-63
2021/10/15 04:41:10;;;;;;;10.68;5.38;;;;;;;10.31;74.01;100010.63;5131015;28;20066;-63
2021/10/15 04:43:57;;;;;;;10.80;5.93;;;;;;;10.32;74.14;100014.97;5115572;28;20051;-63
2021/10/15 04:46:47;;;;;;;9.00;6.22;;;;;;;10.32;73.78;100015.84;5131090;28;20394;-63
2021/10/15 04:49:34;;;;;;;6.97;4.95;;;;;;;10.32;73.76;99999.41;5131202;28;20440;-63
2021/10/15 04:52:24;;;;;;;8.90;4.82;;;;;;;10.32;74.04;99996.81;5130569;28;20059;-63
2021/10/15 04:55:09;;;;;;;10.20;5.50;;;;;;;10.32;74.12;99992.53;5115538;28;20092;-64
2021/10/15 04:57:52;;;;;;;8.63;5.70;;;;;;;10.31;73.83;99990.78;5115241;28;20054;-64
2021/10/15 05:00:39;;;;;;;8.43;5.53;;;;;;;10.33;74.07;99983.03;5130192;28;20051;-63
2021/10/15 05:03:25;;;;;;;9.88;4.95;;;;;;;10.32;73.83;99991.63;5110006;28;20054;-64
2021/10/15 05:06:12;;;;;;;9.18;5.15;;;;;;;10.31;73.97;99992.50;5101443;28;20051;-62
2021/10/15 05:11:55;;;;;;;14.65;6.43;;;;;;;10.32;73.45;99977.00;5116406;28;20050;-62
2021/10/15 05:14:50;;;;;;;10.50;4.75;;;;;;;10.31;73.76;99977.84;5116831;28;20433;-64
2021/10/15 05:17:42;;;;;;;7.18;5.28;;;;;;;10.31;73.69;99983.00;5117018;28;20050;-63
2021/10/15 05:20:28;;;;;;;10.10;5.90;;;;;;;10.30;73.80;99981.28;5100653;28;20074;-63
2021/10/15 05:23:20;;;;;;;7.95;5.40;;;;;;;10.31;74.01;99976.94;5101434;28;20055;-63
2021/10/15 05:26:07;;;;;;;12.00;5.72;;;;;;;10.32;73.66;99981.28;5101302;28;20054;-63
2021/10/15 05:29:06;;;;;;;13.48;5.45;;;;;;;10.32;73.66;99979.56;5100542;28;20042;-62
2021/10/15 05:31:57;;;;;;;8.50;6.07;;;;;;;10.32;73.68;99977.00;5100771;28;20046;-62
2021/10/15 05:34:43;;;;;;;10.40;5.55;;;;;;;10.32;73.72;99984.75;5100575;28;20064;-62
2021/10/15 05:37:35;;;;;;;10.38;5.85;;;;;;;10.31;73.58;99980.44;5100847;28;20090;-62
2021/10/15 05:40:20;;;;;;;7.35;5.72;;;;;;;10.32;73.70;99973.50;5115884;28;20038;-62
2021/10/15 05:43:04;;;;;;;;;;;;;;;10.30;73.69;99982.97;5101493;28;20105;-62
2021/10/15 05:45:55;;;;;;;9.95;5.50;;;;;;;10.31;73.61;99980.44;5115968;28;19959;-61
2021/10/15 05:48:45;;;;;;;10.80;5.38;;;;;;;10.32;74.02;99981.28;5100697;28;20118;-62
2021/10/15 05:51:38;;;;;;;10.75;5.80;;;;;;;10.31;73.58;99984.72;5129046;27;20051;-62
2021/10/15 05:54:29;;;;;;;10.50;5.72;;;;;;;10.31;73.85;99983.00;5100724;28;20423;-62
2021/10/15 06:00:26;;;;;;;7.60;5.35;;;;;;;10.33;73.85;99989.09;5115311;28;20051;-62
2021/10/15 06:03:11;;;;;;;15.43;6.03;;;;;;;10.32;74.07;99987.34;5100521;28;20078;-62
2021/10/15 06:14:46;;;;;;;10.70;6.15;;;;;;;10.34;73.81;99992.53;5114609;28;20430;-63
2021/10/15 06:17:43;;;;;;;11.70;5.43;;;;;;;10.34;73.85;99987.38;5100259;28;20047;-63
2021/10/15 06:20:34;;;;;;;10.00;6.43;;;;;;;10.34;73.99;99985.66;5115329;28;20051;-63
2021/10/15 06:23:24;;;;;;;10.43;5.55;;;;;;;10.34;73.56;99988.25;5115341;28;20055;-63
2021/10/15 06:26:12;;;;;;;11.60;5.95;;;;;;;10.35;73.69;99983.94;5100023;28;20055;-63
2021/10/15 06:28:59;;;;;;;10.93;5.85;;;;;;;10.34;73.74;99987.38;5100065;28;20513;-63
2021/10/15 06:31:46;;;;;;;9.23;6.40;;;;;;;10.34;73.91;99995.13;5115163;28;20054;-63
2021/10/15 06:34:30;;;;;;;14.32;6.40;;;;;;;10.35;73.81;99991.69;5099621;28;20106;-63
2021/10/15 06:37:17;;;;;;;9.43;5.45;;;;;;;10.34;74.05;99998.63;5114722;28;20054;-63
2021/10/15 06:40:06;;;;;;;15.77;5.63;;;;;;;10.35;73.91;100005.50;5099300;28;20047;-63
2021/10/15 06:42:53;;;;;;;7.45;5.55;;;;;;;10.36;73.95;100003.81;5129055;27;20134;-63
2021/10/15 06:45:43;;;;;;;8.13;5.97;;;;;;;10.36;74.06;100003.81;5099607;28;20046;-63
2021/10/15 06:48:33;;;;;;;11.60;5.57;;;;;;;10.38;73.95;100015.09;5099775;28;20573;-63
2021/10/15 06:51:23;;;;;;;8.48;5.97;;;;;;;10.38;73.90;100011.59;5114853;28;20047;-63
2021/10/15 06:54:12;;;;;;;10.00;5.88;;;;;;;10.37;74.13;100010.72;5114617;28;20444;-63
2021/10/15 06:56:57;;;;;;;11.60;5.75;;;;;;;10.37;73.97;100013.31;5114715;28;20050;-63
2021/10/15 06:59:40;;;;;;;9.70;5.97;;;;;;;10.39;73.99;100013.38;5114679;28;20080;-63
2021/10/15 07:02:32;;;;;;;8.75;6.07;;;;;;;10.38;73.76;100017.69;5099572;28;20058;-63
2021/10/15 07:05:24;;;;;;;11.85;6.03;;;;;;;10.39;74.00;100019.44;5098199;28;20568;-63
2021/10/15 07:08:11;;;;;;;12.63;5.60;;;;;;;10.39;74.18;100010.78;5099456;28;20051;-63
2021/10/15 07:11:01;;;;;;;7.75;5.53;;;;;;;10.39;73.97;100010.78;5098989;28;20050;-63
2021/10/15 07:13:49;;;;;;;9.75;5.68;;;;;;;10.40;74.10;100017.72;5099248;28;20579;-63
2021/10/15 07:16:38;;;;;;;12.55;6.03;;;;;;;10.41;74.27;100016.88;5099335;28;20113;-63
2021/10/15 07:19:23;;;;;;;6.80;5.80;;;;;;;10.40;73.94;100018.59;5113996;28;20480;-63
2021/10/15 07:22:06;;;;;;;;;;;;;;;10.39;74.19;100021.13;5099894;28;20057;-63
2021/10/15 07:24:57;;;;;;;11.40;5.57;;;;;;;10.40;74.19;100025.47;5113925;28;20431;-63
2021/10/15 07:27:43;;;;;;;10.90;6.45;;;;;;;10.40;73.91;100028.97;5099402;28;20160;-63
2021/10/15 07:30:35;;;;;;;7.85;5.45;;;;;;;10.41;74.28;100025.53;5114243;28;20120;-63
2021/10/15 07:33:20;;;;;;;10.75;6.28;;;;;;;10.41;74.16;100025.53;5114137;28;20560;-63
2021/10/15 07:36:16;;;;;;;10.70;6.65;;;;;;;10.41;74.02;100024.63;5114377;28;20100;-64
2021/10/15 07:39:03;;;;;;;10.38;6.63;;;;;;;10.43;74.33;100028.13;5098639;28;20547;-64
2021/10/15 07:41:52;;;;;;;8.63;5.93;;;;;;;10.42;74.06;100027.28;5098918;28;20544;-64
2021/10/15 07:44:39;;;;;;;10.35;5.45;;;;;;;10.43;74.50;100034.16;5098908;28;20509;-64
2021/10/15 07:47:23;;;;;;;13.00;6.65;;;;;;;10.44;73.97;100029.88;5098322;28;20131;-64
2021/10/15 07:50:08;;;;;;;13.52;6.93;;;;;;;10.44;74.43;100029.88;5098912;28;20131;-63
2021/10/15 07:52:57;;;;;;;10.88;7.13;;;;;;;10.45;74.28;100039.38;5097937;28;20105;-64
2021/10/15 07:55:44;;;;;;;9.18;6.95;;;;;;;10.45;74.62;100034.22;5113859;28;20046;-63
2021/10/15 07:58:34;;;;;;;8.85;5.85;;;;;;;10.46;74.01;100038.56;5099073;28;20058;-64
2021/10/15 08:01:18;;;;;;;9.50;5.85;;;;;;;10.47;74.45;100035.09;5098210;28;20560;-64
2021/10/15 08:04:03;;;;;;;13.85;6.57;;;;;;;10.48;74.40;100039.44;5114175;28;20058;-62
2021/10/15 08:06:51;;;;;;;11.00;6.47;;;;;;;10.49;74.36;100039.47;5098359;28;20116;-62
2021/10/15 08:09:41;;;;;;;16.58;7.20;;;;;;;10.50;74.81;100037.75;5098676;28;20134;-62
2021/10/15 08:12:25;;;;;;;11.57;6.60;;;;;;;10.52;74.65;100036.03;5113900;28;20042;-62
2021/10/15 08:15:11;;;;;;;11.85;7.05;;;;;;;10.55;74.67;100030.06;5113683;28;20135;-62
2021/10/15 08:17:59;;;;;;;14.60;6.18;;;;;;;10.56;74.82;100027.47;5098203;28;20101;-62
2021/10/15 08:20:44;;;;;;;11.38;6.50;;;;;;;10.57;74.70;100025.78;5098729;28;20043;-62
2021/10/15 08:23:31;;;;;;;;;;;;;;;10.56;74.58;100029.22;5114126;28;20042;-62
2021/10/15 08:26:17;;;;;;;13.00;7.32;;;;;;;10.57;74.74;100028.38;5098332;28;20393;-62
2021/10/15 08:29:06;;;;;;;11.23;6.20;;;;;;;10.58;74.63;100033.56;5113935;28;20050;-62
2021/10/15 08:31:53;;;;;;;13.55;6.55;;;;;;;10.61;74.85;100037.91;5098008;28;20043;-62
2021/10/15 08:34:43;;;;;;;14.13;6.82;;;;;;;10.63;74.47;100044.00;5113439;28;20418;-62
2021/10/15 08:37:27;;;;;;;9.73;7.00;;;;;;;10.63;74.67;100039.69;5098085;28;20092;-62
2021/10/15 08:40:14;;;;;;;8.73;6.53;;;;;;;10.66;74.35;100041.44;5116516;28;20054;-62
2021/10/15 08:43:01;;;;;;;10.75;6.72;;;;;;;10.68;74.66;100044.06;5102212;28;20050;-62
2021/10/15 08:45:46;;;;;;;13.20;7.43;;;;;;;10.70;74.88;100039.78;5117432;28;20059;-62
2021/10/15 08:48:43;;;;;;;14.38;6.70;;;;;;;10.72;74.52;100036.38;5117038;28;20097;-64
2021/10/15 08:51:34;;;;;;;8.63;6.55;;;;;;;10.75;74.37;100043.31;5116647;28;20038;-63
2021/10/15 08:54:38;;;;;;;13.68;7.28;;;;;;;10.75;74.76;100038.97;5117054;28;20055;-63
2021/10/15 08:57:33;;;;;;;14.43;6.70;;;;;;;10.78;74.48;100040.78;5130852;27;20140;-63
2021/10/15 09:00:41;;;;;;;10.23;6.90;;;;;;;10.79;74.45;100038.19;5101820;28;20046;-64
2021/10/15 09:03:25;;;;;;;11.02;6.60;;;;;;;10.81;74.55;100054.66;5101876;28;20104;-63
2021/10/15 09:06:11;;;;;;;11.70;6.85;;;;;;;10.81;74.40;100049.47;5117164;28;20126;-63
2021/10/15 09:08:56;;;;;;;15.05;7.57;;;;;;;10.81;74.46;100043.41;5101657;28;20108;-63
2021/10/15 09:11:46;;;;;;;;;;;;;;;10.83;74.53;100044.28;5117111;28;20050;-64
2021/10/15 09:14:30;;;;;;;11.20;6.72;;;;;;;10.81;74.76;100041.69;5100871;28;19923;-63
2021/10/15 09:17:17;;;;;;;;;;;;;;;10.81;74.87;100051.19;5116632;28;20067;-63
2021/10/15 09:20:03;;;;;;;19.95;8.13;;;;;;;10.79;74.65;100048.56;5101722;28;19961;-63
2021/10/15 09:22:50;;;;;;;11.32;7.88;;;;;;;10.81;74.70;100046.00;5116107;28;20092;-63
2021/10/15 09:25:39;;;;;;;15.48;8.30;;;;;;;10.82;74.68;100042.56;5116523;28;20047;-64
2021/10/15 09:28:29;;;;;;;16.52;8.43;;;;;;;10.82;74.86;100042.56;5116405;28;20112;-63
2021/10/15 09:31:17;;;;;;;13.85;8.30;;;;;;;10.86;74.81;100059.03;5116178;28;20047;-63
2021/10/15 09:34:11;;;;;;;11.80;7.28;;;;;;;10.85;75.24;100065.06;5115992;28;20042;-63
2021/10/15 09:36:55;;;;;;;13.07;8.25;;;;;;;10.86;74.81;100066.81;5116308;28;20104;-63
2021/10/15 09:39:39;;;;;;;16.13;8.40;;;;;;;10.88;74.71;100067.72;5116503;28;20591;-63
2021/10/15 09:42:30;;;;;;;16.70;8.20;;;;;;;10.88;74.84;100070.31;5116154;28;20046;-63
2021/10/15 09:45:23;;;;;;;11.90;7.93;;;;;;;10.87;74.80;100064.22;5101199;28;20116;-63
2021/10/15 09:48:24;;;;;;;13.00;7.63;;;;;;;10.89;75.08;100070.31;5100383;28;20130;-64
2021/10/15 09:51:22;;;;;;;14.27;7.88;;;;;;;10.90;74.89;100072.06;5115688;28;20054;-63
2021/10/15 09:54:11;;;;;;;11.20;7.72;;;;;;;10.92;75.07;100067.78;5100087;28;20058;-63
2021/10/15 09:57:01;;;;;;;12.27;8.43;;;;;;;10.92;74.74;100070.38;5100853;28;20139;-63
2021/10/15 09:59:51;;;;;;;17.10;8.23;;;;;;;10.93;75.11;100071.22;5100866;28;20050;-64
2021/10/15 10:02:38;;;;;;;17.70;8.52;;;;;;;10.94;75.01;100076.47;5115822;28;20046;-63
2021/10/15 10:05:28;;;;;;;9.65;7.38;;;;;;;10.94;74.94;100065.19;5100463;28;20096;-64
2021/10/15 10:08:12;;;;;;;15.23;8.10;;;;;;;10.96;74.66;100073.88;5100228;28;20050;-64
2021/10/15 10:11:01;;;;;;;;;;;;;;;10.96;75.10;100074.75;5116141;28;20050;-63
2021/10/15 10:13:48;;;;;;;14.13;8.55;;;;;;;10.95;74.85;100073.03;5100180;28;19969;-63
2021/10/15 10:16:39;;;;;;;15.80;9.35;;;;;;;10.97;74.98;100078.22;5100206;28;20096;-63
2021/10/15 10:19:28;;;;;;;14.77;8.95;;;;;;;10.98;74.77;100081.69;5115729;28;20399;-64
2021/10/15 10:22:16;;;;;;;13.73;8.10;;;;;;;10.98;74.85;100084.28;5100523;28;20092;-63
2021/10/15 10:25:02;;;;;;;12.65;7.93;;;;;;;10.96;74.61;100092.91;5100217;28;20109;-63
2021/10/15 10:27:46;;;;;;;16.08;8.63;;;;;;;11.00;74.85;100098.13;5115040;28;20069;-63
2021/10/15 10:30:39;;;;;;;19.38;8.13;;;;;;;11.00;74.77;100105.91;5115428;28;20113;-63
2021/10/15 10:33:24;;;;;;;19.35;9.95;;;;;;;11.02;75.19;100109.41;5099731;28;20046;-64
2021/10/15 10:36:15;;;;;;;14.10;9.18;;;;;;;11.01;75.52;100115.44;5114942;28;20087;-64
2021/10/15 10:39:17;;;;;;;12.38;10.13;;;;;;;11.01;75.04;100116.31;5099650;28;20078;-63
2021/10/15 10:42:05;;;;;;;16.80;10.43;;;;;;;11.02;75.25;100118.06;5114647;28;20050;-64
2021/10/15 10:44:52;;;;;;;21.85;9.65;;;;;;;11.01;74.94;100124.09;5099996;28;20055;-64
2021/10/15 10:47:36;;;;;;;12.63;8.73;;;;;;;11.03;75.22;100137.06;5099717;28;20070;-64
2021/10/15 10:50:20;;;;;;;;;;;;;;;11.03;75.09;100143.16;5115396;28;20088;-64
2021/10/15 10:53:09;;;;;;;12.52;8.98;;;;;;;11.02;75.43;100137.91;5114168;28;20286;-64
2021/10/15 10:55:58;;;;;;;10.68;8.10;;;;;;;11.02;75.01;100137.91;5099659;28;20046;-64
2021/10/15 10:58:45;;;;;;;10.90;8.07;;;;;;;11.02;75.16;100141.41;5099586;28;20065;-64
2021/10/15 11:01:43;;;;;;;15.23;9.07;;;;;;;11.03;75.31;100158.72;5098512;28;20123;-64
2021/10/15 11:04:27;;;;;;;12.77;8.20;;;;;;;11.04;75.52;100154.38;5098894;28;20042;-64
2021/10/15 11:07:19;;;;;;;12.73;8.00;;;;;;;11.03;75.32;100156.13;5114178;28;20097;-64
2021/10/15 11:10:06;;;;;;;13.93;9.25;;;;;;;11.05;75.21;100146.66;5099324;28;20046;-64
2021/10/15 11:12:53;;;;;;;13.98;9.07;;;;;;;11.05;75.46;100151.84;5098746;28;20116;-64
2021/10/15 11:15:37;;;;;;;13.57;8.75;;;;;;;11.05;75.70;100158.72;5114825;28;20506;-64
2021/10/15 11:18:24;;;;;;;11.82;7.60;;;;;;;11.03;75.58;100156.13;5114171;28;20157;-64
2021/10/15 11:21:16;;;;;;;11.60;8.35;;;;;;;11.03;75.63;100163.00;5099420;28;20055;-64
2021/10/15 11:24:13;;;;;;;14.57;9.02;;;;;;;11.02;75.75;100162.16;5114573;28;20052;-64
2021/10/15 11:27:01;;;;;;;11.73;8.00;;;;;;;11.03;75.61;100170.78;5099206;28;20103;-64
2021/10/15 11:29:52;;;;;;;14.18;8.60;;;;;;;11.01;75.63;100175.97;5099151;28;20055;-64
2021/10/15 11:32:43;;;;;;;11.65;7.72;;;;;;;11.02;75.49;100175.13;5098779;28;20082;-64
2021/10/15 11:35:34;;;;;;;12.02;7.53;;;;;;;11.02;75.47;100182.91;5114005;28;20066;-64
2021/10/15 11:38:25;;;;;;;10.93;7.47;;;;;;;11.02;75.78;100182.91;5098996;28;20116;-64
2021/10/15 11:41:09;;;;;;;8.43;7.03;;;;;;;11.02;75.61;100190.69;5098887;28;20092;-64
2021/10/15 11:43:55;;;;;;;;;;;;;;;11.01;76.01;100195.81;5114301;28;20050;-64
2021/10/15 11:46:42;;;;;;;10.60;6.90;;;;;;;10.99;75.68;100188.03;5113604;28;19918;-64
2021/10/15 11:49:39;;;;;;;10.52;7.13;;;;;;;11.00;76.01;100194.06;5114193;28;20088;-64
2021/10/15 11:52:25;;;;;;;10.68;6.40;;;;;;;10.99;76.02;100198.41;5098337;28;20105;-64
2021/10/15 11:55:11;;;;;;;8.10;6.68;;;;;;;10.98;76.04;100191.47;5098834;28;20097;-63
2021/10/15 11:58:45;;;;;;;11.50;6.68;;;;;;;10.99;76.02;100192.31;5099025;28;20055;-64
2021/10/15 12:01:32;;;;;;;9.10;5.80;;;;;;;10.99;75.95;100192.31;5095737;28;20403;-63
2021/10/15 12:04:16;;;;;;;7.07;5.60;;;;;;;11.00;76.16;100199.25;5098482;28;20073;-64
2021/10/15 12:07:00;;;;;;;8.07;5.60;;;;;;;10.99;76.16;100202.69;5098655;28;20042;-64
2021/10/15 12:09:48;;;;;;;7.70;5.65;;;;;;;10.98;76.02;100204.44;5098447;28;20078;-64
2021/10/15 12:12:37;;;;;;;6.45;4.68;;;;;;;10.98;76.12;100200.97;5098742;28;20152;-64
2021/10/15 12:15:24;;;;;;;7.38;4.68;;;;;;;10.99;76.14;100205.28;5102487;28;20050;-64
2021/10/15 12:18:11;;;;;;;8.98;4.97;;;;;;;11.00;76.06;100199.25;5102271;28;20073;-64
2021/10/15 12:21:11;;;;;;;6.57;4.72;;;;;;;10.99;76.31;100206.19;5102179;28;20066;-64
2021/10/15 12:23:55;;;;;;;7.30;4.80;;;;;;;10.99;75.78;100200.09;5102058;28;20188;-63
2021/10/15 12:26:42;;;;;;;8.60;4.85;;;;;;;10.99;76.18;100203.59;5118017;28;20181;-64
2021/10/15 12:29:31;;;;;;;6.40;4.20;;;;;;;11.00;76.20;100212.22;5117954;28;20124;-64
2021/10/15 12:32:16;;;;;;;6.53;5.07;;;;;;;11.01;75.93;100211.38;5101951;28;20105;-64
2021/10/15 12:35:13;;;;;;;5.88;4.28;;;;;;;11.01;76.21;100207.09;5117836;28;20042;-64
2021/10/15 12:38:03;;;;;;;5.57;3.95;;;;;;;10.99;75.86;100208.78;5101989;28;20097;-64
2021/10/15 12:40:49;;;;;;;9.82;3.95;;;;;;;11.00;76.08;100215.72;5102446;28;20096;-63
2021/10/15 12:43:36;;;;;;;8.10;3.53;;;;;;;11.00;76.06;100202.75;5117693;28;20192;-64
2021/10/15 12:46:20;;;;;;;4.38;3.58;;;;;;;11.00;76.38;100210.53;5117278;28;20039;-64
2021/10/15 12:49:04;;;;;;;4.28;2.97;;;;;;;11.01;76.29;100211.38;5117104;28;20054;-64
2021/10/15 12:51:48;;;;;;;4.85;2.70;;;;;;;10.99;76.31;100213.97;5101458;28;20422;-64
2021/10/15 12:54:44;;;;;;;5.82;3.47;;;;;;;11.00;76.41;100215.72;5101773;28;20189;-64
2021/10/15 12:57:41;;;;;;;5.00;3.00;;;;;;;11.01;76.07;100224.34;5101861;28;20564;-64
2021/10/15 13:00:25;;;;;;;5.85;3.10;;;;;;;11.00;76.39;100226.09;5101950;28;20046;-63
2021/10/15 13:03:12;;;;;;;4.30;2.55;;;;;;;11.00;76.12;100220.00;5117360;28;20108;-63
2021/10/15 13:06:02;;;;;;;4.75;2.42;;;;;;;11.01;76.49;100224.34;5116891;28;20054;-64
2021/10/15 13:08:51;;;;;;;5.50;2.92;;;;;;;11.00;76.38;100217.41;5116365;28;20078;-63
2021/10/15 13:11:37;;;;;;;5.80;3.05;;;;;;;11.01;76.15;100224.34;5101327;28;20473;-63
2021/10/15 13:14:21;;;;;;;5.30;2.47;;;;;;;10.99;76.47;100219.16;5101406;28;20050;-63
2021/10/15 13:17:13;;;;;;;5.60;2.88;;;;;;;10.99;76.44;100213.97;5101130;28;20042;-63